createdAt,value
2024-02-29T00:06:18.741Z,51
2024-02-29T00:16:18.960Z,51
2024-02-29T00:26:19.180Z,51
2024-02-29T00:36:19.356Z,51
2024-02-29T00:46:19.537Z,51
2024-02-29T00:56:19.760Z,51
2024-02-29T01:06:19.953Z,51
2024-02-29T01:16:20.148Z,51
2024-02-29T01:26:20.336Z,51
2024-02-29T01:36:20.576Z,51
2024-02-29T01:46:20.748Z,51
2024-02-29T01:56:20.948Z,51
2024-02-29T02:06:21.162Z,51
2024-02-29T02:16:21.378Z,51
2024-02-29T02:26:21.535Z,51
2024-02-29T02:36:21.742Z,51
2024-02-29T02:46:21.974Z,51
2024-02-29T02:56:22.171Z,51
2024-02-29T03:06:22.343Z,52
2024-02-29T03:16:22.534Z,52
2024-02-29T03:26:22.729Z,52
2024-02-29T03:36:22.962Z,52
2024-02-29T03:46:23.145Z,52
2024-02-29T03:56:23.343Z,52
2024-02-29T04:06:23.547Z,52
2024-02-29T04:26:23.949Z,52
2024-02-29T04:36:24.180Z,52
2024-02-29T04:46:24.346Z,52
2024-02-29T04:56:24.532Z,52
2024-02-29T05:06:24.733Z,52
2024-02-29T05:16:24.944Z,52
2024-02-29T05:26:25.176Z,52
2024-02-29T05:36:25.338Z,52
2024-02-29T05:46:25.556Z,52
2024-02-29T05:56:25.730Z,52
2024-02-29T06:06:25.912Z,52
2024-02-29T06:16:26.182Z,52
2024-02-29T06:26:26.332Z,52
2024-02-29T06:36:26.577Z,52
2024-02-29T06:46:26.760Z,52
2024-02-29T07:06:27.213Z,52
2024-02-29T07:16:27.311Z,52
2024-02-29T07:26:27.519Z,51
2024-02-29T07:46:27.949Z,51
2024-02-29T07:56:30.102Z,51
2024-02-29T08:06:28.372Z,51
2024-02-29T08:36:28.921Z,51
2024-02-29T08:46:29.147Z,50
2024-02-29T08:56:29.371Z,50
2024-02-29T09:06:35.559Z,49
2024-02-29T09:16:29.798Z,49
2024-02-29T09:26:29.911Z,46
2024-02-29T09:36:30.110Z,44
2024-02-29T09:46:30.318Z,43
2024-02-29T09:56:30.510Z,43
2024-02-29T10:06:30.741Z,43
2024-02-29T10:16:30.985Z,43
2024-02-29T10:26:31.099Z,43
2024-02-29T10:36:31.360Z,43
2024-02-29T10:46:31.498Z,43
2024-02-29T10:56:31.743Z,42
2024-02-29T11:06:31.897Z,42
2024-02-29T11:16:32.107Z,42
2024-02-29T11:26:32.329Z,42
2024-02-29T11:36:32.504Z,42
2024-02-29T11:56:32.892Z,42
2024-02-29T12:06:33.125Z,42
2024-02-29T12:16:33.310Z,43
2024-02-29T12:56:34.086Z,43
2024-02-29T13:16:34.502Z,43
2024-02-29T13:26:34.705Z,44
2024-02-29T13:36:34.873Z,44
2024-02-29T13:56:35.316Z,44
2024-02-29T16:26:38.294Z,43
2024-02-29T17:26:39.457Z,43
2024-02-29T17:36:39.686Z,43
2024-02-29T17:46:39.867Z,43
2024-02-29T17:56:40.058Z,43
2024-02-29T18:06:40.260Z,43
2024-02-29T18:16:40.473Z,43
2024-02-29T18:26:40.645Z,43
2024-02-29T18:36:40.865Z,43
2024-02-29T18:46:41.141Z,43
2024-02-29T18:56:41.244Z,43
2024-02-29T19:06:41.477Z,43
2024-02-29T19:16:42.015Z,43
2024-02-29T19:26:41.856Z,43
2024-02-29T19:36:42.061Z,43
2024-02-29T19:46:42.295Z,43
2024-02-29T19:56:42.462Z,43
2024-02-29T20:06:42.703Z,43
2024-02-29T20:16:42.863Z,43
2024-02-29T20:26:43.070Z,43
2024-02-29T20:36:43.290Z,43
2024-02-29T20:46:43.444Z,43
2024-02-29T20:56:43.642Z,43
2024-02-29T21:06:43.971Z,43
2024-02-29T21:16:44.065Z,43
2024-02-29T21:26:44.247Z,43
2024-02-29T21:36:44.623Z,43
2024-02-29T21:46:44.646Z,43
2024-02-29T21:56:44.838Z,43
2024-02-29T22:06:45.090Z,43
2024-02-29T22:36:45.646Z,43
2024-02-29T22:56:46.055Z,44
2024-02-29T23:06:46.275Z,44
2024-02-29T23:16:46.472Z,44
2024-02-29T23:26:46.646Z,44
2024-02-29T23:36:46.892Z,44
2024-02-29T23:46:47.027Z,44
2024-02-29T23:56:47.306Z,44
